sensor_id;sensor_type;location;lat;lon;timestamp;P1;durP1;ratioP1;P2;durP2;ratioP2
20067;SDS011;10194;50.824;7.134;2024-01-25T00:01:19;57.33;;;47.80;;
20067;SDS011;10194;50.824;7.134;2024-01-25T00:03:45;58.27;;;48.17;;
20067;SDS011;10194;50.824;7.134;2024-01-25T00:06:11;58.60;;;48.40;;
20067;SDS011;10194;50.824;7.134;2024-01-25T00:08:37;57.30;;;47.80;;
20067;SDS011;10194;50.824;7.134;2024-01-25T00:11:03;56.80;;;47.50;;
20067;SDS011;10194;50.824;7.134;2024-01-25T00:13:29;56.63;;;47.40;;
20067;SDS011;10194;50.824;7.134;2024-01-25T00:15:55;56.63;;;47.40;;
20067;SDS011;10194;50.824;7.134;2024-01-25T00:18:21;56.73;;;47.43;;
20067;SDS011;10194;50.824;7.134;2024-01-25T00:20:47;59.93;;;49.00;;
20067;SDS011;10194;50.824;7.134;2024-01-25T00:23:13;57.43;;;47.67;;
20067;SDS011;10194;50.824;7.134;2024-01-25T00:25:39;64.57;;;50.47;;
20067;SDS011;10194;50.824;7.134;2024-01-25T00:28:04;57.77;;;47.90;;
20067;SDS011;10194;50.824;7.134;2024-01-25T00:30:30;58.63;;;48.43;;
20067;SDS011;10194;50.824;7.134;2024-01-25T00:32:56;57.17;;;47.73;;
20067;SDS011;10194;50.824;7.134;2024-01-25T00:35:23;56.93;;;47.43;;
20067;SDS011;10194;50.824;7.134;2024-01-25T00:37:49;59.90;;;48.70;;
20067;SDS011;10194;50.824;7.134;2024-01-25T00:40:16;57.93;;;47.90;;
20067;SDS011;10194;50.824;7.134;2024-01-25T00:42:46;63.77;;;50.57;;
20067;SDS011;10194;50.824;7.134;2024-01-25T00:45:22;58.63;;;48.27;;
20067;SDS011;10194;50.824;7.134;2024-01-25T00:47:49;60.07;;;48.70;;
20067;SDS011;10194;50.824;7.134;2024-01-25T00:50:16;56.70;;;47.40;;
20067;SDS011;10194;50.824;7.134;2024-01-25T00:52:45;62.93;;;50.13;;
20067;SDS011;10194;50.824;7.134;2024-01-25T00:55:14;57.23;;;47.97;;
20067;SDS011;10194;50.824;7.134;2024-01-25T00:57:40;59.60;;;48.80;;
20067;SDS011;10194;50.824;7.134;2024-01-25T01:00:06;57.53;;;47.73;;
20067;SDS011;10194;50.824;7.134;2024-01-25T01:02:35;56.70;;;47.33;;
20067;SDS011;10194;50.824;7.134;2024-01-25T01:05:05;58.20;;;48.10;;
20067;SDS011;10194;50.824;7.134;2024-01-25T01:07:32;57.43;;;47.80;;
20067;SDS011;10194;50.824;7.134;2024-01-25T01:09:58;57.27;;;47.87;;
20067;SDS011;10194;50.824;7.134;2024-01-25T01:12:23;59.13;;;48.70;;
20067;SDS011;10194;50.824;7.134;2024-01-25T01:14:49;64.53;;;51.33;;
20067;SDS011;10194;50.824;7.134;2024-01-25T01:17:15;56.53;;;47.23;;
20067;SDS011;10194;50.824;7.134;2024-01-25T01:19:41;60.50;;;48.77;;
20067;SDS011;10194;50.824;7.134;2024-01-25T01:22:07;57.70;;;48.43;;
20067;SDS011;10194;50.824;7.134;2024-01-25T01:24:33;59.00;;;49.00;;
20067;SDS011;10194;50.824;7.134;2024-01-25T01:26:59;56.93;;;47.60;;
20067;SDS011;10194;50.824;7.134;2024-01-25T01:29:25;57.60;;;48.87;;
20067;SDS011;10194;50.824;7.134;2024-01-25T01:31:51;61.17;;;49.13;;
20067;SDS011;10194;50.824;7.134;2024-01-25T01:34:17;56.83;;;47.47;;
20067;SDS011;10194;50.824;7.134;2024-01-25T01:36:43;58.50;;;48.40;;
20067;SDS011;10194;50.824;7.134;2024-01-25T01:39:09;60.77;;;49.33;;
20067;SDS011;10194;50.824;7.134;2024-01-25T01:41:35;56.70;;;47.40;;
20067;SDS011;10194;50.824;7.134;2024-01-25T01:44:01;56.40;;;47.20;;
20067;SDS011;10194;50.824;7.134;2024-01-25T01:49:00;64.67;;;50.43;;
20067;SDS011;10194;50.824;7.134;2024-01-25T01:51:26;57.27;;;47.63;;
20067;SDS011;10194;50.824;7.134;2024-01-25T01:53:54;58.47;;;48.30;;
20067;SDS011;10194;50.824;7.134;2024-01-25T01:56:21;56.40;;;47.30;;
20067;SDS011;10194;50.824;7.134;2024-01-25T01:58:48;56.37;;;47.40;;
20067;SDS011;10194;50.824;7.134;2024-01-25T02:01:14;58.47;;;48.33;;
20067;SDS011;10194;50.824;7.134;2024-01-25T02:03:40;57.13;;;47.47;;
20067;SDS011;10194;50.824;7.134;2024-01-25T02:06:06;55.77;;;46.97;;
20067;SDS011;10194;50.824;7.134;2024-01-25T02:08:32;55.97;;;46.97;;
20067;SDS011;10194;50.824;7.134;2024-01-25T02:10:58;56.20;;;47.10;;
20067;SDS011;10194;50.824;7.134;2024-01-25T02:13:24;57.93;;;47.97;;
20067;SDS011;10194;50.824;7.134;2024-01-25T02:15:49;55.93;;;46.93;;
20067;SDS011;10194;50.824;7.134;2024-01-25T02:18:15;56.00;;;47.00;;
20067;SDS011;10194;50.824;7.134;2024-01-25T02:20:41;57.17;;;47.57;;
20067;SDS011;10194;50.824;7.134;2024-01-25T02:23:07;55.70;;;46.83;;
20067;SDS011;10194;50.824;7.134;2024-01-25T02:25:33;59.70;;;48.67;;
20067;SDS011;10194;50.824;7.134;2024-01-25T02:27:58;55.90;;;47.10;;
20067;SDS011;10194;50.824;7.134;2024-01-25T02:30:25;55.73;;;46.80;;
20067;SDS011;10194;50.824;7.134;2024-01-25T02:32:50;56.00;;;47.00;;
20067;SDS011;10194;50.824;7.134;2024-01-25T02:35:17;56.23;;;47.20;;
20067;SDS011;10194;50.824;7.134;2024-01-25T02:37:43;58.90;;;48.17;;
20067;SDS011;10194;50.824;7.134;2024-01-25T02:40:09;60.03;;;48.83;;
20067;SDS011;10194;50.824;7.134;2024-01-25T02:42:35;55.77;;;46.77;;
20067;SDS011;10194;50.824;7.134;2024-01-25T02:45:01;58.07;;;48.10;;
20067;SDS011;10194;50.824;7.134;2024-01-25T02:47:27;55.97;;;47.03;;
20067;SDS011;10194;50.824;7.134;2024-01-25T02:49:52;57.40;;;47.60;;
20067;SDS011;10194;50.824;7.134;2024-01-25T02:52:18;60.00;;;48.50;;
20067;SDS011;10194;50.824;7.134;2024-01-25T02:54:44;59.40;;;48.60;;
20067;SDS011;10194;50.824;7.134;2024-01-25T02:57:09;55.50;;;46.70;;
20067;SDS011;10194;50.824;7.134;2024-01-25T02:59:35;57.50;;;47.80;;
20067;SDS011;10194;50.824;7.134;2024-01-25T03:02:01;55.53;;;46.77;;
20067;SDS011;10194;50.824;7.134;2024-01-25T03:04:27;55.93;;;47.00;;
20067;SDS011;10194;50.824;7.134;2024-01-25T03:06:53;55.77;;;46.90;;
20067;SDS011;10194;50.824;7.134;2024-01-25T03:09:18;56.77;;;47.33;;
20067;SDS011;10194;50.824;7.134;2024-01-25T03:11:46;55.87;;;47.10;;
20067;SDS011;10194;50.824;7.134;2024-01-25T03:14:12;55.57;;;46.77;;
20067;SDS011;10194;50.824;7.134;2024-01-25T03:16:38;56.13;;;47.10;;
20067;SDS011;10194;50.824;7.134;2024-01-25T03:19:03;55.20;;;46.50;;
20067;SDS011;10194;50.824;7.134;2024-01-25T03:21:29;57.67;;;47.57;;
20067;SDS011;10194;50.824;7.134;2024-01-25T03:23:55;56.33;;;47.10;;
20067;SDS011;10194;50.824;7.134;2024-01-25T03:26:21;55.20;;;46.60;;
20067;SDS011;10194;50.824;7.134;2024-01-25T03:28:46;55.50;;;46.70;;
20067;SDS011;10194;50.824;7.134;2024-01-25T03:31:12;56.23;;;46.97;;
20067;SDS011;10194;50.824;7.134;2024-01-25T03:33:38;57.30;;;47.70;;
20067;SDS011;10194;50.824;7.134;2024-01-25T03:36:04;56.40;;;46.90;;
20067;SDS011;10194;50.824;7.134;2024-01-25T03:38:31;55.50;;;46.60;;
20067;SDS011;10194;50.824;7.134;2024-01-25T03:40:57;55.33;;;46.57;;
20067;SDS011;10194;50.824;7.134;2024-01-25T03:43:26;55.23;;;46.50;;
20067;SDS011;10194;50.824;7.134;2024-01-25T03:45:53;57.53;;;47.63;;
20067;SDS011;10194;50.824;7.134;2024-01-25T03:48:18;55.23;;;46.60;;
20067;SDS011;10194;50.824;7.134;2024-01-25T03:50:44;55.63;;;46.77;;
20067;SDS011;10194;50.824;7.134;2024-01-25T03:53:11;55.20;;;46.50;;
20067;SDS011;10194;50.824;7.134;2024-01-25T03:55:36;55.17;;;46.50;;
20067;SDS011;10194;50.824;7.134;2024-01-25T03:58:02;57.50;;;47.63;;
20067;SDS011;10194;50.824;7.134;2024-01-25T04:00:28;56.87;;;47.27;;
20067;SDS011;10194;50.824;7.134;2024-01-25T04:02:54;55.53;;;46.67;;
20067;SDS011;10194;50.824;7.134;2024-01-25T04:05:20;55.30;;;46.60;;
20067;SDS011;10194;50.824;7.134;2024-01-25T04:07:45;55.43;;;46.50;;
20067;SDS011;10194;50.824;7.134;2024-01-25T04:10:11;57.17;;;47.17;;
20067;SDS011;10194;50.824;7.134;2024-01-25T04:12:37;55.13;;;46.47;;
20067;SDS011;10194;50.824;7.134;2024-01-25T04:15:04;54.90;;;46.40;;
20067;SDS011;10194;50.824;7.134;2024-01-25T04:17:31;58.80;;;48.27;;
20067;SDS011;10194;50.824;7.134;2024-01-25T04:19:56;55.10;;;46.33;;
20067;SDS011;10194;50.824;7.134;2024-01-25T04:22:22;55.60;;;46.70;;
20067;SDS011;10194;50.824;7.134;2024-01-25T04:24:48;58.00;;;48.00;;
20067;SDS011;10194;50.824;7.134;2024-01-25T04:27:14;57.40;;;47.63;;
20067;SDS011;10194;50.824;7.134;2024-01-25T04:29:41;57.27;;;47.50;;
20067;SDS011;10194;50.824;7.134;2024-01-25T04:32:08;55.67;;;46.70;;
20067;SDS011;10194;50.824;7.134;2024-01-25T04:34:34;56.37;;;47.23;;
20067;SDS011;10194;50.824;7.134;2024-01-25T04:37:01;55.47;;;46.67;;
20067;SDS011;10194;50.824;7.134;2024-01-25T04:39:27;56.80;;;47.47;;
20067;SDS011;10194;50.824;7.134;2024-01-25T04:41:53;54.90;;;46.50;;
20067;SDS011;10194;50.824;7.134;2024-01-25T04:44:18;55.27;;;46.50;;
20067;SDS011;10194;50.824;7.134;2024-01-25T04:46:44;55.23;;;46.47;;
20067;SDS011;10194;50.824;7.134;2024-01-25T04:49:10;55.87;;;46.87;;
20067;SDS011;10194;50.824;7.134;2024-01-25T04:51:36;57.27;;;47.50;;
20067;SDS011;10194;50.824;7.134;2024-01-25T04:54:02;55.00;;;46.30;;
20067;SDS011;10194;50.824;7.134;2024-01-25T04:56:28;61.57;;;48.80;;
20067;SDS011;10194;50.824;7.134;2024-01-25T04:58:54;55.17;;;46.47;;
20067;SDS011;10194;50.824;7.134;2024-01-25T05:01:19;56.70;;;47.17;;
20067;SDS011;10194;50.824;7.134;2024-01-25T05:03:45;57.50;;;47.47;;
20067;SDS011;10194;50.824;7.134;2024-01-25T05:06:11;54.90;;;46.30;;
20067;SDS011;10194;50.824;7.134;2024-01-25T05:08:37;54.47;;;46.10;;
20067;SDS011;10194;50.824;7.134;2024-01-25T05:11:03;54.53;;;46.17;;
20067;SDS011;10194;50.824;7.134;2024-01-25T05:13:29;55.40;;;46.50;;
20067;SDS011;10194;50.824;7.134;2024-01-25T05:15:55;57.87;;;47.53;;
20067;SDS011;10194;50.824;7.134;2024-01-25T05:18:21;56.77;;;47.13;;
20067;SDS011;10194;50.824;7.134;2024-01-25T05:20:47;54.70;;;46.20;;
20067;SDS011;10194;50.824;7.134;2024-01-25T05:23:12;54.80;;;46.10;;
20067;SDS011;10194;50.824;7.134;2024-01-25T05:25:38;56.70;;;46.87;;
20067;SDS011;10194;50.824;7.134;2024-01-25T05:28:04;55.70;;;46.63;;
20067;SDS011;10194;50.824;7.134;2024-01-25T05:30:30;54.77;;;46.10;;
20067;SDS011;10194;50.824;7.134;2024-01-25T05:32:56;54.17;;;45.77;;
20067;SDS011;10194;50.824;7.134;2024-01-25T05:35:22;54.97;;;46.40;;
20067;SDS011;10194;50.824;7.134;2024-01-25T05:37:49;54.67;;;46.13;;
20067;SDS011;10194;50.824;7.134;2024-01-25T05:40:15;55.87;;;46.57;;
20067;SDS011;10194;50.824;7.134;2024-01-25T05:42:40;54.43;;;45.77;;
20067;SDS011;10194;50.824;7.134;2024-01-25T05:45:06;54.23;;;45.67;;
20067;SDS011;10194;50.824;7.134;2024-01-25T05:47:34;54.20;;;45.60;;
20067;SDS011;10194;50.824;7.134;2024-01-25T05:49:59;53.60;;;45.40;;
20067;SDS011;10194;50.824;7.134;2024-01-25T05:52:26;53.47;;;45.20;;
20067;SDS011;10194;50.824;7.134;2024-01-25T05:54:52;55.93;;;46.53;;
20067;SDS011;10194;50.824;7.134;2024-01-25T05:57:18;56.23;;;46.50;;
20067;SDS011;10194;50.824;7.134;2024-01-25T05:59:45;53.57;;;45.27;;
20067;SDS011;10194;50.824;7.134;2024-01-25T06:02:11;53.80;;;45.30;;
20067;SDS011;10194;50.824;7.134;2024-01-25T06:04:37;57.60;;;46.97;;
20067;SDS011;10194;50.824;7.134;2024-01-25T06:07:02;54.20;;;45.40;;
20067;SDS011;10194;50.824;7.134;2024-01-25T06:09:29;55.93;;;46.27;;
20067;SDS011;10194;50.824;7.134;2024-01-25T06:11:54;53.30;;;45.10;;
20067;SDS011;10194;50.824;7.134;2024-01-25T06:14:20;52.90;;;44.83;;
20067;SDS011;10194;50.824;7.134;2024-01-25T06:16:46;54.87;;;45.77;;
20067;SDS011;10194;50.824;7.134;2024-01-25T06:19:12;52.90;;;45.00;;
20067;SDS011;10194;50.824;7.134;2024-01-25T06:21:37;53.00;;;45.10;;
20067;SDS011;10194;50.824;7.134;2024-01-25T06:24:04;53.23;;;45.17;;
20067;SDS011;10194;50.824;7.134;2024-01-25T06:26:30;53.53;;;45.30;;
20067;SDS011;10194;50.824;7.134;2024-01-25T06:28:56;52.60;;;44.77;;
20067;SDS011;10194;50.824;7.134;2024-01-25T06:31:22;54.87;;;46.30;;
20067;SDS011;10194;50.824;7.134;2024-01-25T06:33:51;52.97;;;44.97;;
20067;SDS011;10194;50.824;7.134;2024-01-25T06:36:20;53.07;;;45.10;;
20067;SDS011;10194;50.824;7.134;2024-01-25T06:38:49;53.20;;;44.97;;
20067;SDS011;10194;50.824;7.134;2024-01-25T06:41:15;54.63;;;45.77;;
20067;SDS011;10194;50.824;7.134;2024-01-25T06:43:42;52.90;;;44.93;;
20067;SDS011;10194;50.824;7.134;2024-01-25T06:46:08;52.73;;;44.83;;
20067;SDS011;10194;50.824;7.134;2024-01-25T06:48:33;53.03;;;45.03;;
20067;SDS011;10194;50.824;7.134;2024-01-25T06:50:59;54.30;;;45.70;;
20067;SDS011;10194;50.824;7.134;2024-01-25T06:53:28;52.90;;;45.10;;
20067;SDS011;10194;50.824;7.134;2024-01-25T06:55:54;53.33;;;45.27;;
20067;SDS011;10194;50.824;7.134;2024-01-25T06:58:20;53.57;;;45.40;;
20067;SDS011;10194;50.824;7.134;2024-01-25T07:00:46;53.57;;;45.53;;
20067;SDS011;10194;50.824;7.134;2024-01-25T07:03:12;52.70;;;44.80;;
20067;SDS011;10194;50.824;7.134;2024-01-25T07:05:38;55.83;;;46.40;;
20067;SDS011;10194;50.824;7.134;2024-01-25T07:08:04;54.13;;;46.13;;
20067;SDS011;10194;50.824;7.134;2024-01-25T07:10:30;55.20;;;46.60;;
20067;SDS011;10194;50.824;7.134;2024-01-25T07:12:56;52.87;;;45.60;;
20067;SDS011;10194;50.824;7.134;2024-01-25T07:15:22;53.70;;;45.80;;
20067;SDS011;10194;50.824;7.134;2024-01-25T07:17:48;52.90;;;45.47;;
20067;SDS011;10194;50.824;7.134;2024-01-25T07:20:14;53.80;;;45.90;;
20067;SDS011;10194;50.824;7.134;2024-01-25T07:22:40;54.57;;;46.60;;
20067;SDS011;10194;50.824;7.134;2024-01-25T07:25:06;55.13;;;46.73;;
20067;SDS011;10194;50.824;7.134;2024-01-25T07:27:32;54.20;;;45.87;;
20067;SDS011;10194;50.824;7.134;2024-01-25T07:29:58;53.97;;;46.23;;
20067;SDS011;10194;50.824;7.134;2024-01-25T07:32:23;54.63;;;46.10;;
20067;SDS011;10194;50.824;7.134;2024-01-25T07:34:49;54.77;;;46.43;;
20067;SDS011;10194;50.824;7.134;2024-01-25T07:37:16;53.80;;;46.03;;
20067;SDS011;10194;50.824;7.134;2024-01-25T07:39:43;53.90;;;46.23;;
20067;SDS011;10194;50.824;7.134;2024-01-25T07:42:10;53.47;;;45.90;;
20067;SDS011;10194;50.824;7.134;2024-01-25T07:44:36;56.37;;;47.47;;
20067;SDS011;10194;50.824;7.134;2024-01-25T07:47:02;53.93;;;46.20;;
20067;SDS011;10194;50.824;7.134;2024-01-25T07:49:28;53.67;;;45.97;;
20067;SDS011;10194;50.824;7.134;2024-01-25T07:51:54;54.43;;;46.10;;
20067;SDS011;10194;50.824;7.134;2024-01-25T07:54:23;55.50;;;46.87;;
20067;SDS011;10194;50.824;7.134;2024-01-25T07:56:50;53.23;;;45.67;;
20067;SDS011;10194;50.824;7.134;2024-01-25T07:59:15;53.50;;;45.90;;
20067;SDS011;10194;50.824;7.134;2024-01-25T08:01:41;53.73;;;45.93;;
20067;SDS011;10194;50.824;7.134;2024-01-25T08:04:07;53.33;;;45.80;;
20067;SDS011;10194;50.824;7.134;2024-01-25T08:06:33;56.13;;;46.90;;
20067;SDS011;10194;50.824;7.134;2024-01-25T08:08:58;55.37;;;45.73;;
20067;SDS011;10194;50.824;7.134;2024-01-25T08:11:24;55.53;;;46.27;;
20067;SDS011;10194;50.824;7.134;2024-01-25T08:13:50;54.90;;;46.03;;
20067;SDS011;10194;50.824;7.134;2024-01-25T08:16:16;56.67;;;46.77;;
20067;SDS011;10194;50.824;7.134;2024-01-25T08:18:46;55.03;;;46.00;;
20067;SDS011;10194;50.824;7.134;2024-01-25T08:21:12;59.37;;;47.87;;
20067;SDS011;10194;50.824;7.134;2024-01-25T08:23:38;55.93;;;46.23;;
20067;SDS011;10194;50.824;7.134;2024-01-25T08:26:04;54.80;;;45.70;;
20067;SDS011;10194;50.824;7.134;2024-01-25T08:28:34;56.23;;;46.37;;
20067;SDS011;10194;50.824;7.134;2024-01-25T08:31:01;55.27;;;45.90;;
20067;SDS011;10194;50.824;7.134;2024-01-25T08:33:27;55.57;;;46.27;;
20067;SDS011;10194;50.824;7.134;2024-01-25T08:35:53;56.00;;;46.30;;
20067;SDS011;10194;50.824;7.134;2024-01-25T08:38:19;59.10;;;47.87;;
20067;SDS011;10194;50.824;7.134;2024-01-25T08:40:44;56.90;;;46.93;;
20067;SDS011;10194;50.824;7.134;2024-01-25T08:43:10;56.37;;;46.43;;
20067;SDS011;10194;50.824;7.134;2024-01-25T08:45:36;60.53;;;48.33;;
20067;SDS011;10194;50.824;7.134;2024-01-25T08:48:03;57.20;;;47.17;;
20067;SDS011;10194;50.824;7.134;2024-01-25T08:50:30;57.67;;;47.43;;
20067;SDS011;10194;50.824;7.134;2024-01-25T08:52:55;57.03;;;46.97;;
20067;SDS011;10194;50.824;7.134;2024-01-25T08:55:21;56.50;;;47.27;;
20067;SDS011;10194;50.824;7.134;2024-01-25T08:57:48;60.07;;;48.50;;
20067;SDS011;10194;50.824;7.134;2024-01-25T09:00:14;59.33;;;48.43;;
20067;SDS011;10194;50.824;7.134;2024-01-25T09:02:40;57.43;;;47.50;;
20067;SDS011;10194;50.824;7.134;2024-01-25T09:05:07;57.60;;;47.43;;
20067;SDS011;10194;50.824;7.134;2024-01-25T09:07:33;56.80;;;47.13;;
20067;SDS011;10194;50.824;7.134;2024-01-25T09:09:59;57.30;;;47.30;;
20067;SDS011;10194;50.824;7.134;2024-01-25T09:12:25;58.67;;;47.93;;
20067;SDS011;10194;50.824;7.134;2024-01-25T09:14:51;58.17;;;47.83;;
20067;SDS011;10194;50.824;7.134;2024-01-25T09:17:17;57.50;;;47.60;;
20067;SDS011;10194;50.824;7.134;2024-01-25T09:19:49;57.17;;;47.27;;
20067;SDS011;10194;50.824;7.134;2024-01-25T09:22:16;58.13;;;48.13;;
20067;SDS011;10194;50.824;7.134;2024-01-25T09:24:44;64.17;;;50.40;;
20067;SDS011;10194;50.824;7.134;2024-01-25T09:27:11;62.47;;;51.33;;
20067;SDS011;10194;50.824;7.134;2024-01-25T09:29:40;60.03;;;49.73;;
20067;SDS011;10194;50.824;7.134;2024-01-25T09:32:08;68.90;;;54.47;;
20067;SDS011;10194;50.824;7.134;2024-01-25T09:34:37;62.90;;;50.43;;
20067;SDS011;10194;50.824;7.134;2024-01-25T09:37:04;57.70;;;47.70;;
20067;SDS011;10194;50.824;7.134;2024-01-25T09:39:31;59.00;;;48.57;;
20067;SDS011;10194;50.824;7.134;2024-01-25T09:41:57;63.07;;;50.60;;
20067;SDS011;10194;50.824;7.134;2024-01-25T09:44:23;59.00;;;48.47;;
20067;SDS011;10194;50.824;7.134;2024-01-25T09:46:50;58.67;;;48.40;;
20067;SDS011;10194;50.824;7.134;2024-01-25T09:49:16;58.90;;;48.57;;
20067;SDS011;10194;50.824;7.134;2024-01-25T09:51:43;60.60;;;49.37;;
20067;SDS011;10194;50.824;7.134;2024-01-25T09:54:10;63.47;;;50.53;;
20067;SDS011;10194;50.824;7.134;2024-01-25T09:56:36;58.87;;;48.50;;
20067;SDS011;10194;50.824;7.134;2024-01-25T09:59:03;59.57;;;49.10;;
20067;SDS011;10194;50.824;7.134;2024-01-25T10:01:29;59.40;;;48.90;;
20067;SDS011;10194;50.824;7.134;2024-01-25T10:03:55;58.03;;;48.27;;
20067;SDS011;10194;50.824;7.134;2024-01-25T10:06:22;57.87;;;47.97;;
20067;SDS011;10194;50.824;7.134;2024-01-25T10:08:48;59.43;;;49.10;;
20067;SDS011;10194;50.824;7.134;2024-01-25T10:11:14;60.37;;;49.50;;
20067;SDS011;10194;50.824;7.134;2024-01-25T10:13:42;61.80;;;49.63;;
20067;SDS011;10194;50.824;7.134;2024-01-25T10:16:12;59.53;;;48.77;;
20067;SDS011;10194;50.824;7.134;2024-01-25T10:18:42;59.40;;;48.60;;
20067;SDS011;10194;50.824;7.134;2024-01-25T10:21:12;61.77;;;49.70;;
20067;SDS011;10194;50.824;7.134;2024-01-25T10:23:39;62.43;;;50.03;;
20067;SDS011;10194;50.824;7.134;2024-01-25T10:26:05;61.70;;;49.87;;
20067;SDS011;10194;50.824;7.134;2024-01-25T10:28:33;59.70;;;49.00;;
20067;SDS011;10194;50.824;7.134;2024-01-25T10:31:02;67.77;;;52.80;;
20067;SDS011;10194;50.824;7.134;2024-01-25T10:33:32;61.87;;;49.97;;
20067;SDS011;10194;50.824;7.134;2024-01-25T10:36:01;59.13;;;48.50;;
20067;SDS011;10194;50.824;7.134;2024-01-25T10:38:29;58.53;;;48.40;;
20067;SDS011;10194;50.824;7.134;2024-01-25T10:41:03;59.20;;;48.70;;
20067;SDS011;10194;50.824;7.134;2024-01-25T10:43:30;62.03;;;49.70;;
20067;SDS011;10194;50.824;7.134;2024-01-25T10:45:57;60.47;;;49.33;;
20067;SDS011;10194;50.824;7.134;2024-01-25T10:48:27;60.53;;;49.50;;
20067;SDS011;10194;50.824;7.134;2024-01-25T10:50:56;62.73;;;50.23;;
20067;SDS011;10194;50.824;7.134;2024-01-25T10:53:27;59.60;;;48.83;;
20067;SDS011;10194;50.824;7.134;2024-01-25T10:55:57;61.80;;;49.87;;
20067;SDS011;10194;50.824;7.134;2024-01-25T10:58:23;60.00;;;49.33;;
20067;SDS011;10194;50.824;7.134;2024-01-25T11:00:52;59.27;;;48.70;;
20067;SDS011;10194;50.824;7.134;2024-01-25T11:03:27;59.90;;;49.17;;
20067;SDS011;10194;50.824;7.134;2024-01-25T11:06:04;61.00;;;49.33;;
20067;SDS011;10194;50.824;7.134;2024-01-25T11:08:38;59.37;;;48.87;;
20067;SDS011;10194;50.824;7.134;2024-01-25T11:11:08;59.00;;;48.93;;
20067;SDS011;10194;50.824;7.134;2024-01-25T11:13:41;58.93;;;48.70;;
20067;SDS011;10194;50.824;7.134;2024-01-25T11:16:15;60.27;;;49.10;;
20067;SDS011;10194;50.824;7.134;2024-01-25T11:18:56;61.63;;;49.67;;
20067;SDS011;10194;50.824;7.134;2024-01-25T11:21:48;58.97;;;48.77;;
20067;SDS011;10194;50.824;7.134;2024-01-25T11:24:17;59.10;;;48.80;;
20067;SDS011;10194;50.824;7.134;2024-01-25T11:26:55;60.90;;;49.43;;
20067;SDS011;10194;50.824;7.134;2024-01-25T11:29:21;63.47;;;50.67;;
20067;SDS011;10194;50.824;7.134;2024-01-25T11:31:49;60.90;;;49.73;;
20067;SDS011;10194;50.824;7.134;2024-01-25T11:34:16;58.97;;;48.77;;
20067;SDS011;10194;50.824;7.134;2024-01-25T11:36:46;58.73;;;48.70;;
20067;SDS011;10194;50.824;7.134;2024-01-25T11:39:13;59.20;;;48.73;;
20067;SDS011;10194;50.824;7.134;2024-01-25T11:41:40;59.03;;;48.77;;
20067;SDS011;10194;50.824;7.134;2024-01-25T11:44:11;63.23;;;50.57;;
20067;SDS011;10194;50.824;7.134;2024-01-25T11:46:40;62.37;;;50.27;;
20067;SDS011;10194;50.824;7.134;2024-01-25T11:49:07;59.23;;;49.00;;
20067;SDS011;10194;50.824;7.134;2024-01-25T11:51:33;64.60;;;51.47;;
20067;SDS011;10194;50.824;7.134;2024-01-25T11:53:59;61.57;;;50.00;;
20067;SDS011;10194;50.824;7.134;2024-01-25T11:56:29;60.57;;;49.77;;
20067;SDS011;10194;50.824;7.134;2024-01-25T11:58:57;61.27;;;50.23;;
20067;SDS011;10194;50.824;7.134;2024-01-25T12:01:24;64.03;;;51.53;;
20067;SDS011;10194;50.824;7.134;2024-01-25T12:03:50;62.23;;;50.77;;
20067;SDS011;10194;50.824;7.134;2024-01-25T12:06:17;62.73;;;50.90;;
20067;SDS011;10194;50.824;7.134;2024-01-25T12:08:44;65.97;;;52.20;;
20067;SDS011;10194;50.824;7.134;2024-01-25T12:11:11;63.13;;;51.10;;
20067;SDS011;10194;50.824;7.134;2024-01-25T12:13:40;61.23;;;50.43;;
20067;SDS011;10194;50.824;7.134;2024-01-25T12:16:08;62.23;;;51.00;;
20067;SDS011;10194;50.824;7.134;2024-01-25T12:18:35;64.50;;;52.00;;
20067;SDS011;10194;50.824;7.134;2024-01-25T12:21:03;61.53;;;50.53;;
20067;SDS011;10194;50.824;7.134;2024-01-25T12:23:36;64.33;;;51.83;;
20067;SDS011;10194;50.824;7.134;2024-01-25T12:26:04;61.87;;;50.90;;
20067;SDS011;10194;50.824;7.134;2024-01-25T12:28:32;63.20;;;51.37;;
20067;SDS011;10194;50.824;7.134;2024-01-25T12:31:02;63.40;;;51.80;;
20067;SDS011;10194;50.824;7.134;2024-01-25T12:33:30;64.17;;;51.57;;
20067;SDS011;10194;50.824;7.134;2024-01-25T12:35:58;66.53;;;52.53;;
20067;SDS011;10194;50.824;7.134;2024-01-25T12:38:24;66.50;;;52.77;;
20067;SDS011;10194;50.824;7.134;2024-01-25T12:40:51;65.77;;;52.67;;
20067;SDS011;10194;50.824;7.134;2024-01-25T12:43:18;62.73;;;51.37;;
20067;SDS011;10194;50.824;7.134;2024-01-25T12:45:46;67.10;;;53.30;;
20067;SDS011;10194;50.824;7.134;2024-01-25T12:48:12;66.50;;;53.20;;
20067;SDS011;10194;50.824;7.134;2024-01-25T12:50:38;64.33;;;52.37;;
20067;SDS011;10194;50.824;7.134;2024-01-25T12:53:04;65.90;;;52.70;;
20067;SDS011;10194;50.824;7.134;2024-01-25T12:55:31;63.07;;;51.10;;
20067;SDS011;10194;50.824;7.134;2024-01-25T12:57:58;63.70;;;51.50;;
20067;SDS011;10194;50.824;7.134;2024-01-25T13:00:24;63.47;;;51.67;;
20067;SDS011;10194;50.824;7.134;2024-01-25T13:02:50;69.07;;;53.93;;
20067;SDS011;10194;50.824;7.134;2024-01-25T13:05:16;64.93;;;52.37;;
20067;SDS011;10194;50.824;7.134;2024-01-25T13:07:42;66.97;;;53.00;;
20067;SDS011;10194;50.824;7.134;2024-01-25T13:10:11;62.17;;;51.10;;
20067;SDS011;10194;50.824;7.134;2024-01-25T13:12:37;62.27;;;50.80;;
20067;SDS011;10194;50.824;7.134;2024-01-25T13:15:04;61.90;;;50.80;;
20067;SDS011;10194;50.824;7.134;2024-01-25T13:17:31;65.67;;;52.23;;
20067;SDS011;10194;50.824;7.134;2024-01-25T13:19:59;61.70;;;50.70;;
20067;SDS011;10194;50.824;7.134;2024-01-25T13:22:25;62.43;;;51.20;;
20067;SDS011;10194;50.824;7.134;2024-01-25T13:24:52;63.60;;;51.83;;
20067;SDS011;10194;50.824;7.134;2024-01-25T13:27:18;67.50;;;53.43;;
20067;SDS011;10194;50.824;7.134;2024-01-25T13:29:43;64.83;;;52.43;;
20067;SDS011;10194;50.824;7.134;2024-01-25T13:32:09;68.23;;;53.87;;
20067;SDS011;10194;50.824;7.134;2024-01-25T13:34:36;65.10;;;52.40;;
20067;SDS011;10194;50.824;7.134;2024-01-25T13:37:02;63.97;;;51.97;;
20067;SDS011;10194;50.824;7.134;2024-01-25T13:39:28;70.07;;;54.40;;
20067;SDS011;10194;50.824;7.134;2024-01-25T13:41:54;65.13;;;52.43;;
20067;SDS011;10194;50.824;7.134;2024-01-25T13:44:21;65.83;;;52.90;;
20067;SDS011;10194;50.824;7.134;2024-01-25T13:46:47;62.60;;;51.47;;
20067;SDS011;10194;50.824;7.134;2024-01-25T13:49:13;61.80;;;50.97;;
20067;SDS011;10194;50.824;7.134;2024-01-25T13:51:39;69.20;;;53.97;;
20067;SDS011;10194;50.824;7.134;2024-01-25T13:54:04;61.90;;;50.97;;
20067;SDS011;10194;50.824;7.134;2024-01-25T13:56:30;66.40;;;53.00;;
20067;SDS011;10194;50.824;7.134;2024-01-25T13:58:56;64.37;;;52.13;;
20067;SDS011;10194;50.824;7.134;2024-01-25T14:01:22;68.10;;;53.67;;
20067;SDS011;10194;50.824;7.134;2024-01-25T14:03:47;63.70;;;51.97;;
20067;SDS011;10194;50.824;7.134;2024-01-25T14:06:13;69.67;;;54.10;;
20067;SDS011;10194;50.824;7.134;2024-01-25T14:08:39;62.80;;;51.40;;
20067;SDS011;10194;50.824;7.134;2024-01-25T14:11:05;62.57;;;51.40;;
20067;SDS011;10194;50.824;7.134;2024-01-25T14:13:31;62.73;;;51.53;;
20067;SDS011;10194;50.824;7.134;2024-01-25T14:15:57;68.03;;;53.57;;
20067;SDS011;10194;50.824;7.134;2024-01-25T14:18:27;69.30;;;54.03;;
20067;SDS011;10194;50.824;7.134;2024-01-25T14:20:54;68.53;;;53.63;;